createdAt,value
2023-03-23T15:59:10.095Z,34.63
2023-03-23T16:01:38.854Z,36.50
2023-03-23T16:04:08.305Z,35.16
2023-03-23T16:06:36.680Z,35.40
2023-03-23T16:09:04.893Z,34.54
2023-03-23T16:11:33.607Z,34.81
2023-03-23T16:14:02.945Z,33.75
2023-03-23T16:16:32.514Z,33.52
2023-03-23T16:19:00.645Z,33.39
2023-03-23T16:21:28.569Z,33.67
2023-03-23T16:23:56.797Z,34.33
2023-03-23T16:26:24.888Z,34.12
2023-03-23T16:28:55.396Z,34.27
2023-03-23T16:31:29.310Z,34.15
2023-03-23T16:33:57.286Z,34.05
2023-03-23T16:36:25.342Z,34.08
2023-03-23T16:38:54.776Z,34.39
2023-03-23T16:41:22.973Z,34.37
2023-03-23T16:43:51.354Z,34.41
2023-03-23T16:46:19.367Z,34.52
2023-03-23T16:48:48.753Z,34.72
2023-03-23T16:51:16.725Z,34.88
2023-03-23T16:53:44.658Z,34.61
2023-03-23T16:56:12.680Z,35.01
2023-03-23T16:58:41.576Z,34.90
2023-03-23T17:01:09.528Z,35.01
2023-03-23T17:03:37.644Z,34.77
2023-03-23T17:06:07.836Z,34.85
2023-03-23T17:08:35.845Z,35.01
2023-03-23T17:11:03.786Z,34.88
2023-03-23T17:13:31.713Z,34.82
2023-03-23T17:15:59.613Z,35.10
2023-03-23T17:18:29.137Z,34.83
2023-03-23T17:20:57.297Z,35.02
2023-03-23T17:23:26.623Z,34.82
2023-03-23T17:25:54.674Z,35.08
2023-03-23T17:28:22.952Z,34.96
2023-03-23T17:30:50.904Z,35.16
2023-03-23T17:33:22.071Z,35.29
2023-03-23T17:35:51.990Z,35.27
2023-03-23T17:38:20.138Z,34.92
2023-03-23T17:40:49.491Z,35.13
2023-03-23T17:43:17.437Z,35.09
2023-03-23T17:45:47.128Z,34.88
2023-03-23T17:48:15.422Z,34.78
2023-03-23T17:50:43.389Z,34.76
2023-03-23T17:53:11.359Z,34.84
2023-03-23T17:55:41.195Z,34.93
2023-03-23T17:58:10.691Z,34.89
2023-03-23T18:00:39.172Z,34.79
2023-03-23T18:03:07.259Z,34.52
2023-03-23T18:05:38.256Z,34.83
2023-03-23T18:08:06.643Z,34.71
2023-03-23T18:10:37.055Z,34.83
2023-03-23T18:13:05.053Z,34.92
2023-03-23T18:15:34.541Z,34.61
2023-03-23T18:18:03.622Z,34.92
2023-03-23T18:20:31.711Z,34.99
2023-03-23T18:22:59.710Z,34.76
2023-03-23T18:25:27.763Z,34.66
2023-03-23T18:27:56.313Z,34.75
2023-03-23T18:30:34.129Z,34.64
2023-03-23T18:33:02.351Z,34.74
2023-03-23T18:35:30.393Z,34.63
2023-03-23T18:37:58.638Z,35.10
2023-03-23T18:40:26.572Z,34.65
2023-03-23T18:42:54.488Z,34.94
2023-03-23T18:45:22.480Z,35.22
2023-03-23T18:47:54.240Z,34.86
2023-03-23T18:50:22.430Z,34.94
2023-03-23T18:52:50.453Z,34.91
2023-03-23T18:55:20.094Z,35.24
2023-03-23T18:57:49.549Z,35.34
2023-03-23T19:00:18.654Z,35.82
2023-03-23T19:02:47.326Z,35.39
2023-03-23T19:05:22.334Z,35.26
2023-03-23T19:07:53.154Z,35.47
2023-03-23T19:14:11.670Z,35.48
2023-03-23T19:16:39.680Z,35.38
2023-03-23T19:19:09.009Z,35.35
2023-03-23T19:21:39.858Z,35.25
2023-03-23T19:24:09.114Z,35.19
2023-03-23T19:26:38.560Z,35.03
2023-03-23T19:31:37.557Z,35.02
2023-03-23T19:34:05.525Z,34.98
2023-03-23T19:36:33.558Z,34.81
2023-03-23T19:41:50.563Z,35.08
2023-03-23T19:44:18.606Z,34.74
2023-03-23T19:46:48.041Z,34.56
2023-03-23T19:49:16.415Z,34.83
2023-03-23T19:51:47.299Z,34.71
2023-03-23T19:54:28.883Z,34.54
2023-03-23T19:56:57.029Z,34.76
2023-03-23T19:59:25.239Z,34.32
2023-03-23T20:01:54.772Z,34.38
2023-03-23T20:04:23.977Z,34.38
2023-03-23T20:06:52.820Z,34.76
2023-03-23T20:09:20.774Z,34.85
2023-03-23T20:11:50.403Z,34.48
2023-03-23T20:14:18.486Z,34.24
2023-03-23T20:16:46.495Z,34.23
2023-03-23T20:19:14.519Z,34.31
2023-03-23T20:21:42.499Z,34.36
2023-03-23T20:24:10.491Z,34.03
2023-03-23T20:26:40.066Z,34.02
2023-03-23T20:29:09.665Z,34.12
2023-03-23T20:31:39.192Z,34.32
2023-03-23T20:34:09.741Z,34.35
2023-03-23T20:36:42.729Z,34.21
2023-03-23T20:39:11.646Z,34.38
2023-03-23T20:41:40.809Z,34.13
2023-03-23T20:44:13.851Z,33.83
2023-03-23T20:46:42.185Z,34.35
2023-03-23T20:49:10.206Z,34.29
2023-03-23T20:51:38.188Z,33.77
2023-03-23T20:54:06.270Z,33.76
2023-03-23T20:56:34.393Z,33.71
2023-03-23T20:59:02.668Z,34.04
2023-03-23T21:01:33.326Z,33.51
2023-03-23T21:04:03.145Z,33.68
2023-03-23T21:06:31.427Z,33.86
2023-03-23T21:08:59.565Z,33.96
2023-03-23T21:11:28.046Z,33.83
2023-03-23T21:13:56.176Z,33.56
2023-03-23T21:16:24.367Z,33.80
2023-03-23T21:18:53.976Z,33.60
2023-03-23T21:21:23.509Z,33.52
2023-03-23T21:23:53.009Z,33.47
2023-03-23T21:26:22.635Z,33.65
2023-03-23T21:28:51.020Z,33.71
2023-03-23T21:31:19.477Z,33.65
2023-03-23T21:33:47.401Z,33.58
2023-03-23T21:36:17.008Z,33.85
2023-03-23T21:38:46.019Z,33.68
2023-03-23T21:41:15.030Z,33.51
2023-03-23T21:43:45.877Z,33.42
2023-03-23T21:46:18.346Z,33.82
2023-03-23T21:48:51.294Z,33.34
2023-03-23T21:51:23.789Z,33.42
2023-03-23T21:53:54.151Z,33.35
2023-03-23T21:56:23.352Z,33.66
2023-03-23T21:58:51.351Z,33.64
2023-03-23T22:01:19.444Z,33.70
2023-03-23T22:03:47.651Z,33.82
2023-03-23T22:06:18.345Z,33.66
2023-03-23T22:08:47.976Z,33.50
2023-03-23T22:11:17.377Z,33.68
2023-03-23T22:13:45.564Z,33.55
2023-03-23T22:16:15.512Z,33.78
2023-03-23T22:18:45.206Z,33.42
2023-03-23T22:21:13.593Z,33.49
2023-03-23T22:23:41.736Z,33.85
2023-03-23T22:26:11.419Z,34.04
2023-03-23T22:28:39.883Z,34.05
2023-03-23T22:31:09.237Z,33.81
2023-03-23T22:33:38.665Z,33.59
2023-03-23T22:36:07.504Z,33.56
2023-03-23T22:38:36.001Z,33.96
2023-03-23T22:41:04.728Z,33.62
2023-03-23T22:43:34.327Z,33.62
2023-03-23T22:46:02.600Z,33.56
2023-03-23T22:48:31.066Z,33.57
2023-03-23T22:50:59.705Z,33.62
2023-03-23T22:53:29.153Z,33.66
2023-03-23T22:56:01.164Z,33.46
2023-03-23T22:58:30.659Z,33.73
2023-03-23T23:01:02.703Z,33.43
2023-03-23T23:03:34.410Z,33.56
2023-03-23T23:06:02.743Z,33.80
2023-03-23T23:08:32.958Z,33.61
2023-03-23T23:11:02.377Z,33.84
2023-03-23T23:13:33.126Z,33.73
2023-03-23T23:16:04.453Z,33.79
2023-03-23T23:18:33.270Z,33.62
2023-03-23T23:21:02.998Z,33.83
2023-03-23T23:23:34.495Z,33.63
2023-03-23T23:26:12.437Z,33.64
2023-03-23T23:28:42.423Z,33.78
2023-03-23T23:31:22.769Z,33.67
2023-03-23T23:33:52.140Z,33.69
2023-03-23T23:36:21.570Z,33.75
2023-03-23T23:38:51.673Z,33.62
2023-03-23T23:41:21.303Z,33.43
2023-03-23T23:43:49.497Z,33.51
2023-03-23T23:46:20.479Z,33.66
2023-03-23T23:48:48.736Z,33.67
2023-03-23T23:51:18.428Z,33.76
2023-03-23T23:53:53.329Z,33.51
2023-03-23T23:56:23.762Z,33.48
2023-03-23T23:58:53.195Z,33.26
